Time;durP1;ratioP1;P1;durP2;ratioP2;P2;SDS_P1;SDS_P2;PMS_P1;PMS_P2;Temp;Humidity;BMP_temperature;BMP_pressure;BME280_temperature;BME280_humidity;BME280_pressure;Samples;Min_cycle;Max_cycle;Signal;HPM_P1;HPM_P2
2022/05/21 00:00:02;;;;;;;2.42;1.00;;;;;;;19.23;31.25;101382.38;5095068;28;20413;-72
2022/05/21 00:02:29;;;;;;;1.67;1.25;;;;;;;19.24;31.43;101379.47;5103960;28;20438;-72
2022/05/21 00:04:57;;;;;;;2.80;1.00;;;;;;;19.16;31.63;101376.19;5103937;28;20939;-73
2022/05/21 00:07:24;;;;;;;1.73;1.00;;;;;;;19.19;31.92;101371.22;5104064;28;20491;-72
2022/05/21 00:09:51;;;;;;;3.42;1.10;;;;;;;19.20;32.09;101374.75;5103797;28;20936;-74
2022/05/21 00:12:18;;;;;;;2.95;1.10;;;;;;;19.06;32.15;101365.91;5103179;28;20435;-72
2022/05/21 00:14:45;;;;;;;2.30;1.10;;;;;;;18.98;31.81;101366.09;5109461;28;20414;-73
2022/05/21 00:17:12;;;;;;;1.48;0.90;;;;;;;19.00;31.96;101362.19;5125047;27;20430;-75
2022/05/21 00:19:39;;;;;;;1.75;1.05;;;;;;;18.95;31.87;101363.88;5112802;27;20880;-72
2022/05/21 00:22:07;;;;;;;3.13;1.00;;;;;;;18.94;31.13;101356.81;5104335;28;20419;-72
2022/05/21 00:24:34;;;;;;;2.40;1.00;;;;;;;18.95;31.22;101355.81;5103024;28;20487;-73
2022/05/21 00:27:01;;;;;;;2.20;0.98;;;;;;;18.85;31.50;101357.06;5104791;28;20949;-72
2022/05/21 00:29:28;;;;;;;1.90;1.10;;;;;;;18.84;31.59;101360.78;5104577;28;20483;-73
2022/05/21 00:31:55;;;;;;;1.40;0.88;;;;;;;18.80;31.84;101358.66;5103627;28;20865;-72
2022/05/21 00:34:22;;;;;;;1.23;0.95;;;;;;;18.78;31.86;101358.06;5103702;28;20421;-72
2022/05/21 00:36:49;;;;;;;1.45;1.00;;;;;;;18.61;32.14;101354.97;5104410;28;20499;-75
2022/05/21 00:39:18;;;;;;;2.05;1.10;;;;;;;18.58;32.09;101345.47;5103790;28;20420;-73
2022/05/21 00:41:45;;;;;;;3.38;1.25;;;;;;;18.60;32.00;101348.78;5103679;28;20941;-73
2022/05/21 00:44:12;;;;;;;6.10;1.00;;;;;;;18.63;32.06;101336.81;5089460;28;20413;-74
2022/05/21 00:46:41;;;;;;;1.60;1.02;;;;;;;18.56;32.41;101342.16;5089694;28;20501;-72
2022/05/21 00:49:13;;;;;;;3.58;1.10;;;;;;;18.56;32.69;101334.09;5089285;28;20417;-74
2022/05/21 00:51:43;;;;;;;2.28;1.10;;;;;;;18.52;32.84;101330.19;5074352;28;20811;-72
2022/05/21 00:54:12;;;;;;;3.00;1.10;;;;;;;18.46;33.00;101331.84;5089433;28;20490;-74
2022/05/21 00:56:46;;;;;;;2.40;0.97;;;;;;;18.49;33.23;101323.41;5088852;28;20504;-72
2022/05/21 01:02:01;;;;;;;3.17;1.08;;;;;;;18.33;33.82;101323.81;5089764;28;20412;-72
2022/05/21 01:04:29;;;;;;;2.53;1.10;;;;;;;18.36;33.67;101320.69;5089488;28;20577;-72
2022/05/21 01:06:59;;;;;;;1.52;0.90;;;;;;;18.20;33.95;101321.13;5089730;28;20444;-72
2022/05/21 01:09:26;;;;;;;1.63;1.10;;;;;;;18.26;33.62;101310.38;5088799;28;20496;-72
2022/05/21 01:14:20;;;;;;;6.35;1.20;;;;;;;18.22;33.92;101325.25;5114635;27;20408;-74
2022/05/21 01:16:48;;;;;;;1.70;1.10;;;;;;;18.08;34.41;101319.03;5103775;28;20499;-75
2022/05/21 01:19:15;;;;;;;1.42;1.05;;;;;;;18.09;34.27;101319.88;5104605;28;20820;-74
2022/05/21 01:21:43;;;;;;;2.15;1.10;;;;;;;17.98;34.63;101307.06;5105143;28;20491;-74
2022/05/21 01:24:12;;;;;;;7.18;1.52;;;;;;;17.90;34.80;101313.47;5104413;28;20900;-75
2022/05/21 01:26:41;;;;;;;6.60;1.30;;;;;;;17.81;34.56;101317.31;5095817;28;20449;-74
2022/05/21 01:29:13;;;;;;;4.17;1.20;;;;;;;17.82;34.76;101309.06;5100738;28;20507;-73
2022/05/21 01:31:40;;;;;;;3.83;1.05;;;;;;;17.81;35.08;101310.09;5088507;28;20442;-74
2022/05/21 01:34:08;;;;;;;2.80;1.00;;;;;;;17.63;35.06;101304.47;5103806;28;20489;-74
2022/05/21 01:36:35;;;;;;;4.83;1.20;;;;;;;17.63;34.93;101308.00;5103902;28;20499;-74
2022/05/21 01:39:01;;;;;;;4.53;1.20;;;;;;;17.63;34.97;101308.00;5103961;28;20412;-74
2022/05/21 01:41:30;;;;;;;1.60;1.00;;;;;;;17.70;34.88;101314.22;5103851;28;21071;-74
2022/05/21 01:47:37;;;;;;;3.33;1.15;;;;;;;17.68;34.49;101296.66;5083022;27;20471;-75
2022/05/21 01:50:04;;;;;;;3.55;1.00;;;;;;;17.64;34.43;101290.88;5084436;28;20425;-74
2022/05/21 01:52:31;;;;;;;2.03;1.00;;;;;;;17.64;34.39;101296.22;5084053;28;21029;-75
2022/05/21 01:54:59;;;;;;;1.48;1.00;;;;;;;17.68;33.97;101302.00;5083772;28;20452;-73
2022/05/21 01:57:25;;;;;;;2.20;1.00;;;;;;;17.55;34.56;101308.16;5083369;28;20458;-74
2022/05/21 01:59:53;;;;;;;2.83;1.00;;;;;;;17.46;34.35;101312.06;5084286;28;20544;-75
2022/05/21 02:02:20;;;;;;;2.27;0.87;;;;;;;17.26;34.21;101312.81;5084496;28;20420;-73
2022/05/21 02:04:49;;;;;;;1.80;0.90;;;;;;;17.32;34.02;101308.50;5083225;28;20418;-74
2022/05/21 02:07:16;;;;;;;2.50;1.23;;;;;;;17.36;34.81;101310.59;5080796;28;20434;-74
2022/05/21 02:09:43;;;;;;;3.67;1.60;;;;;;;17.47;35.81;101305.69;5068342;28;20493;-74
2022/05/21 02:12:14;;;;;;;3.80;1.10;;;;;;;17.41;35.56;101301.94;5083738;28;20457;-75
2022/05/21 02:14:41;;;;;;;1.48;0.90;;;;;;;17.43;34.25;101293.69;5083638;28;20416;-74
2022/05/21 02:17:08;;;;;;;1.02;0.80;;;;;;;17.41;34.09;101288.53;5083871;28;20414;-74
2022/05/21 02:19:35;;;;;;;1.77;0.90;;;;;;;17.43;34.03;101293.69;5084356;28;20951;-77
2022/05/21 02:22:04;;;;;;;1.23;0.90;;;;;;;17.39;34.13;101296.78;5084466;28;20489;-75
2022/05/21 02:24:30;;;;;;;1.30;0.82;;;;;;;17.20;34.43;101293.00;5084253;28;20785;-76
2022/05/21 02:26:57;;;;;;;1.63;0.80;;;;;;;17.14;34.79;101287.59;5083606;28;20517;-74
2022/05/21 02:29:25;;;;;;;2.42;0.88;;;;;;;17.09;34.95;101284.72;5084128;28;20414;-75
2022/05/21 02:31:52;;;;;;;3.50;0.98;;;;;;;17.11;34.81;101280.81;5084374;28;20432;-76
2022/05/21 02:34:18;;;;;;;2.17;0.90;;;;;;;17.06;34.83;101285.09;5084606;28;20418;-75
2022/05/21 02:39:31;;;;;;;1.30;1.00;;;;;;;16.86;35.27;101287.69;5084036;28;20409;-74
2022/05/21 02:42:00;;;;;;;3.20;1.00;;;;;;;16.91;35.61;101288.75;5083500;28;20402;-74
2022/05/21 02:44:27;;;;;;;2.80;1.13;;;;;;;16.98;35.62;101286.94;5084103;28;20493;-74
2022/05/21 02:46:54;;;;;;;3.22;1.10;;;;;;;17.02;35.41;101281.19;5098899;28;20481;-75
2022/05/21 02:49:22;;;;;;;3.42;1.10;;;;;;;17.04;35.18;101282.63;5104323;28;20444;-74
2022/05/21 02:51:49;;;;;;;3.42;0.82;;;;;;;17.02;35.36;101281.19;5104095;28;20408;-74
2022/05/21 02:54:16;;;;;;;1.95;1.08;;;;;;;17.06;34.94;101290.47;5103391;28;20415;-75
2022/05/21 02:56:50;;;;;;;4.00;1.00;;;;;;;17.02;35.05;101289.22;5103033;28;20433;-74
2022/05/21 02:59:17;;;;;;;2.50;1.10;;;;;;;17.11;34.89;101294.19;5090094;28;20405;-75
2022/05/21 03:01:44;;;;;;;3.17;1.10;;;;;;;17.03;35.13;101291.69;5090339;28;20409;-75
2022/05/21 03:04:11;;;;;;;1.00;0.82;;;;;;;17.23;34.61;101288.25;5089659;28;20920;-75
2022/05/21 03:06:39;;;;;;;3.20;1.00;;;;;;;17.43;34.51;101297.22;5090179;28;20432;-74
2022/05/21 03:12:08;;;;;;;5.05;1.00;;;;;;;17.90;33.32;101305.41;5027743;28;20863;-75
2022/05/21 03:14:35;;;;;;;5.90;1.20;;;;;;;18.12;32.94;101300.69;5027510;28;20991;-76
2022/05/21 03:17:02;;;;;;;2.35;1.00;;;;;;;18.43;32.25;101301.91;5056376;28;20411;-76
2022/05/21 03:19:31;;;;;;;4.30;1.30;;;;;;;18.63;31.96;101301.88;5090294;28;20493;-77
2022/05/21 03:21:58;;;;;;;3.97;1.30;;;;;;;18.72;31.68;101303.31;5090241;28;20969;-77
2022/05/21 03:24:25;;;;;;;3.70;1.00;;;;;;;18.98;31.46;101307.00;5090145;28;20417;-77
2022/05/21 03:26:52;;;;;;;2.88;0.95;;;;;;;19.21;31.14;101303.81;5089823;28;20524;-77
2022/05/21 03:29:21;;;;;;;2.17;1.00;;;;;;;19.34;30.94;101298.41;5090137;28;20496;-77
2022/05/21 03:31:48;;;;;;;2.47;1.03;;;;;;;19.50;30.62;101294.41;5089713;28;20406;-78
2022/05/21 03:34:15;;;;;;;2.70;0.95;;;;;;;19.77;30.34;101291.56;5089727;28;20584;-77
2022/05/21 03:36:42;;;;;;;2.25;1.10;;;;;;;20.08;30.08;101287.22;5089919;28;20492;-77
2022/05/21 03:39:09;;;;;;;3.97;1.20;;;;;;;20.27;29.79;101290.78;5089898;28;20413;-77
2022/05/21 03:41:36;;;;;;;2.70;1.00;;;;;;;20.46;29.18;101289.78;5089626;28;20504;-77
2022/05/21 03:44:04;;;;;;;3.95;1.20;;;;;;;20.74;28.92;101293.88;5089631;28;20409;-78
2022/05/21 03:46:34;;;;;;;12.75;2.40;;;;;;;20.85;29.00;101290.47;5089776;28;20516;-77
2022/05/21 03:49:01;;;;;;;8.02;1.85;;;;;;;21.01;28.60;101297.13;5089558;28;20459;-78
2022/05/21 03:51:28;;;;;;;3.00;1.40;;;;;;;21.32;28.42;101287.19;5089412;28;20420;-76
2022/05/21 03:53:54;;;;;;;5.35;1.50;;;;;;;21.46;28.47;101285.19;5089039;28;20510;-77
2022/05/21 03:56:21;;;;;;;7.25;1.70;;;;;;;21.71;28.38;101285.84;5089286;28;20487;-77
2022/05/21 03:58:48;;;;;;;4.85;1.45;;;;;;;22.05;27.96;101288.84;5089252;28;20415;-77
2022/05/21 04:01:16;;;;;;;4.30;1.50;;;;;;;22.41;27.24;101281.63;5088639;28;20496;-77
2022/05/21 04:03:44;;;;;;;5.68;1.50;;;;;;;22.78;27.28;101281.38;5088931;28;20488;-77
2022/05/21 04:06:12;;;;;;;2.97;1.30;;;;;;;23.08;26.80;101280.41;5088543;28;20429;-77
2022/05/21 04:08:39;;;;;;;5.63;1.50;;;;;;;23.39;26.11;101275.59;5087396;28;20417;-78
2022/05/21 04:11:06;;;;;;;4.03;1.45;;;;;;;23.69;25.61;101282.63;5087673;28;20978;-77
2022/05/21 04:13:33;;;;;;;4.35;1.40;;;;;;;23.96;25.23;101274.72;5088445;28;20414;-78
2022/05/21 04:16:00;;;;;;;6.38;1.30;;;;;;;24.27;24.76;101273.31;5089059;28;20492;-77
2022/05/21 04:18:27;;;;;;;2.85;1.25;;;;;;;24.64;24.58;101275.50;5089437;28;20498;-78
2022/05/21 04:20:55;;;;;;;2.50;1.10;;;;;;;25.07;23.79;101282.00;5089133;28;20417;-78
2022/05/21 04:23:22;;;;;;;1.38;1.08;;;;;;;25.52;23.19;101274.66;5088768;28;20857;-77
2022/05/21 04:25:49;;;;;;;3.10;1.50;;;;;;;25.78;22.75;101275.69;5088634;28;20496;-77
2022/05/21 04:28:16;;;;;;;4.23;1.80;;;;;;;26.19;22.16;101272.53;5088411;28;20938;-78
2022/05/21 04:30:43;;;;;;;2.25;1.50;;;;;;;26.86;21.46;101279.19;5088475;28;20402;-77
2022/05/21 04:33:10;;;;;;;2.92;1.50;;;;;;;27.57;20.98;101275.88;5088893;28;20505;-77
2022/05/21 04:38:22;;;;;;;6.97;2.00;;;;;;;28.62;19.73;101270.91;5077848;28;20497;-77
2022/05/21 04:40:49;;;;;;;5.00;1.60;;;;;;;29.31;19.13;101273.88;5088208;28;20420;-78
2022/05/21 04:43:16;;;;;;;3.97;1.63;;;;;;;30.14;18.38;101265.88;5087933;28;20603;-77
2022/05/21 04:45:43;;;;;;;4.68;1.65;;;;;;;30.98;17.61;101268.25;5088317;28;20492;-78
2022/05/21 04:48:10;;;;;;;3.72;1.40;;;;;;;32.20;16.60;101268.25;5087984;28;20523;-78
2022/05/21 04:50:39;;;;;;;3.45;1.40;;;;;;;33.08;16.38;101266.50;5088013;28;20915;-79
2022/05/21 04:53:06;;;;;;;4.40;1.60;;;;;;;33.78;15.97;101265.19;5088122;28;20495;-79
2022/05/21 04:55:36;;;;;;;4.00;1.58;;;;;;;34.55;15.20;101263.09;5087713;28;20525;-79
2022/05/21 04:58:03;;;;;;;3.38;1.60;;;;;;;35.43;14.21;101253.03;5087692;28;20451;-78
2022/05/21 05:00:30;;;;;;;5.30;1.70;;;;;;;36.09;14.16;101268.50;5087816;28;20417;-76
2022/05/21 05:02:57;;;;;;;3.30;1.70;;;;;;;36.66;13.27;101259.81;5087688;28;20930;-78
2022/05/21 05:05:24;;;;;;;3.10;1.60;;;;;;;37.03;12.82;101246.22;5088016;28;20505;-76
2022/05/21 05:07:52;;;;;;;4.83;1.70;;;;;;;37.51;12.76;101249.56;5087965;28;20439;-80
2022/05/21 05:10:19;;;;;;;1.73;1.50;;;;;;;38.12;12.03;101239.81;5088026;28;20810;-77
2022/05/21 05:12:48;;;;;;;3.40;1.85;;;;;;;38.50;11.96;101225.63;5087490;28;20898;-77
2022/05/21 05:15:15;;;;;;;2.50;1.85;;;;;;;38.95;11.31;101224.59;5088000;28;20492;-79
2022/05/21 05:17:42;;;;;;;4.47;1.90;;;;;;;39.53;10.90;101229.81;5069742;28;20871;-77
2022/05/21 05:20:09;;;;;;;3.72;2.10;;;;;;;40.00;10.46;101233.03;5087545;28;20551;-77
2022/05/21 05:22:37;;;;;;;3.50;2.53;;;;;;;40.41;10.06;101228.03;5087502;28;20500;-78
2022/05/21 05:25:05;;;;;;;2.67;2.45;;;;;;;40.90;9.84;101224.78;5087749;28;20989;-76
2022/05/21 05:27:33;;;;;;;3.63;2.42;;;;;;;41.38;9.75;101227.31;5087318;28;21311;-78
2022/05/21 05:30:02;;;;;;;3.70;2.13;;;;;;;41.52;9.28;101224.81;5087512;28;20998;-78
2022/05/21 05:32:29;;;;;;;3.00;2.10;;;;;;;41.22;9.10;101227.41;5088012;28;20420;-77
2022/05/21 05:34:56;;;;;;;3.65;2.00;;;;;;;41.48;9.25;101212.81;5086707;28;20495;-80
2022/05/21 05:37:23;;;;;;;3.90;2.10;;;;;;;42.03;8.77;101218.16;5069382;28;20810;-77
2022/05/21 05:39:50;;;;;;;2.70;1.80;;;;;;;42.25;8.88;101204.53;5087645;28;20497;-77
2022/05/21 05:42:18;;;;;;;2.30;2.00;;;;;;;42.60;8.90;101207.06;5087301;28;20492;-76
2022/05/21 05:44:44;;;;;;;2.58;1.70;;;;;;;42.19;9.18;101201.28;5087330;28;20413;-77
2022/05/21 05:47:13;;;;;;;4.20;1.85;;;;;;;42.78;8.75;101204.50;5087647;28;20981;-77
2022/05/21 05:49:40;;;;;;;3.67;1.63;;;;;;;43.20;8.57;101199.81;5087552;28;20405;-77
2022/05/21 05:52:08;;;;;;;2.40;1.48;;;;;;;43.53;8.36;101198.97;5087398;28;20500;-77
2022/05/21 05:54:37;;;;;;;3.75;1.70;;;;;;;44.00;8.18;101196.56;5087356;28;20462;-77
2022/05/21 05:57:08;;;;;;;3.40;1.50;;;;;;;44.13;8.09;101197.88;5087602;28;20492;-77
2022/05/21 05:59:50;;;;;;;3.10;1.50;;;;;;;44.59;8.04;101202.16;5086868;28;20981;-80
2022/05/21 06:05:08;;;;;;;3.60;1.60;;;;;;;44.84;8.20;101189.06;5087547;28;20956;-76
2022/05/21 06:07:40;;;;;;;2.63;1.50;;;;;;;45.15;7.71;101181.16;5086839;28;20466;-78
2022/05/21 06:10:09;;;;;;;1.63;1.40;;;;;;;45.05;7.79;101179.13;5087431;28;20493;-79
2022/05/21 06:12:35;;;;;;;1.90;1.70;;;;;;;45.66;7.60;101168.00;5087088;28;20496;-78
2022/05/21 06:15:03;;;;;;;2.85;1.70;;;;;;;45.76;7.34;101160.81;5087074;28;20997;-77
2022/05/21 06:17:31;;;;;;;3.28;1.60;;;;;;;45.80;7.84;101158.81;5087049;28;20468;-77
2022/05/21 06:19:58;;;;;;;4.90;1.65;;;;;;;45.81;7.71;101166.00;5087000;28;20454;-77
2022/05/21 06:22:26;;;;;;;2.97;2.00;;;;;;;45.64;7.87;101164.78;5087062;28;20435;-78
2022/05/21 06:24:53;;;;;;;2.30;1.60;;;;;;;45.97;7.38;101163.59;5087298;28;20449;-81
2022/05/21 06:27:20;;;;;;;2.60;1.70;;;;;;;45.85;7.59;101161.22;5087042;28;20420;-77
2022/05/21 06:29:47;;;;;;;4.00;1.80;;;;;;;45.85;7.40;101151.97;5086958;28;20413;-77
2022/05/21 06:32:15;;;;;;;2.65;1.75;;;;;;;45.66;7.53;101151.19;5086999;28;20421;-80
2022/05/21 06:34:43;;;;;;;3.17;1.92;;;;;;;45.40;7.51;101164.41;5091124;28;20443;-75
2022/05/21 06:37:13;;;;;;;2.10;1.90;;;;;;;44.52;7.77;101157.34;5092092;28;20513;-76
2022/05/21 06:39:42;;;;;;;2.83;2.00;;;;;;;44.51;7.79;101161.34;5091132;28;20413;-77
2022/05/21 06:42:09;;;;;;;2.77;2.00;;;;;;;44.53;8.24;101150.59;5090851;28;20451;-76
2022/05/21 06:44:37;;;;;;;4.60;2.00;;;;;;;43.89;8.37;101154.59;5089946;28;20445;-76
2022/05/21 06:47:04;;;;;;;6.60;2.30;;;;;;;43.61;9.56;101152.34;5090977;28;20500;-75
2022/05/21 06:49:31;;;;;;;2.83;2.00;;;;;;;43.38;10.01;101149.78;5090308;28;20496;-75
2022/05/21 06:52:00;;;;;;;4.63;1.77;;;;;;;43.25;10.27;101152.81;5090558;28;20496;-75
2022/05/21 06:54:28;;;;;;;3.70;1.92;;;;;;;43.39;9.76;101154.19;5090712;28;20460;-76
2022/05/21 06:56:55;;;;;;;4.13;2.30;;;;;;;43.63;9.94;101147.19;5090194;28;20412;-76
2022/05/21 06:59:22;;;;;;;7.40;2.67;;;;;;;42.20;11.31;101150.75;5090339;28;20414;-75
2022/05/21 07:01:49;;;;;;;4.75;2.40;;;;;;;42.89;10.81;101157.22;5090223;28;20515;-75
2022/05/21 07:04:16;;;;;;;3.45;1.80;;;;;;;43.52;9.98;101152.69;5091714;28;20496;-74
2022/05/21 07:09:29;;;;;;;3.42;1.95;;;;;;;42.76;10.34;101145.50;5092204;28;20455;-73
2022/05/21 07:11:56;;;;;;;3.83;1.73;;;;;;;42.79;10.54;101144.75;5091112;28;20857;-69
2022/05/21 07:14:23;;;;;;;3.97;1.80;;;;;;;42.20;10.61;101145.19;5091349;28;20405;-69
2022/05/21 07:16:50;;;;;;;2.88;1.70;;;;;;;41.00;11.24;101142.75;5091073;28;20484;-68
2022/05/21 07:19:17;;;;;;;4.18;2.30;;;;;;;40.00;12.65;101158.06;5091691;28;20496;-72
2022/05/21 07:21:44;;;;;;;6.30;3.67;;;;;;;39.68;12.36;101152.50;5090861;28;20936;-68
2022/05/21 07:24:11;;;;;;;4.68;2.03;;;;;;;38.68;12.83;101156.09;5090851;28;20492;-68
2022/05/21 07:26:42;;;;;;;6.25;2.28;;;;;;;37.57;14.75;101158.88;5089598;28;20496;-69
2022/05/21 07:29:09;;;;;;;6.22;2.10;;;;;;;37.12;15.22;101144.69;5091425;28;20488;-68
2022/05/21 07:31:36;;;;;;;6.82;3.05;;;;;;;36.62;15.23;101156.63;5092017;28;20413;-69
2022/05/21 07:34:03;;;;;;;4.80;2.30;;;;;;;36.22;16.33;101161.81;5090182;28;20449;-68
2022/05/21 07:36:30;;;;;;;6.03;2.37;;;;;;;35.83;16.06;101166.50;5090041;28;20485;-69
2022/05/21 07:38:57;;;;;;;5.60;2.35;;;;;;;35.54;16.49;101171.59;5089868;28;20504;-67
2022/05/21 07:41:24;;;;;;;6.68;2.83;;;;;;;34.97;17.26;101169.88;5091323;28;20501;-68
2022/05/21 07:43:52;;;;;;;6.57;2.80;;;;;;;34.85;17.69;101173.28;5090567;28;20409;-71
2022/05/21 07:46:19;;;;;;;4.82;2.03;;;;;;;33.96;18.06;101177.25;5090231;28;20499;-67
2022/05/21 07:48:46;;;;;;;5.63;2.13;;;;;;;33.44;18.68;101173.09;5090159;28;20405;-67
2022/05/21 07:51:13;;;;;;;4.35;2.00;;;;;;;33.52;19.55;101183.31;5090856;28;20497;-68
2022/05/21 07:53:42;;;;;;;4.65;2.00;;;;;;;33.39;18.96;101170.47;5090202;28;20496;-68
2022/05/21 07:56:11;;;;;;;8.25;2.30;;;;;;;33.20;19.48;101156.91;5089160;28;20830;-73
2022/05/21 07:58:39;;;;;;;5.50;2.10;;;;;;;32.05;20.78;101161.56;5088664;28;20429;-68
2022/05/21 08:01:10;;;;;;;3.80;2.15;;;;;;;31.87;20.99;101146.00;5090391;28;20405;-68
2022/05/21 08:03:37;;;;;;;5.25;2.58;;;;;;;31.96;21.27;101142.28;5091018;28;20413;-70
2022/05/21 08:06:04;;;;;;;2.40;1.92;;;;;;;30.98;22.18;101151.31;5090627;28;20415;-71
2022/05/21 08:08:31;;;;;;;4.78;2.10;;;;;;;30.65;22.88;101143.03;5091310;28;20783;-71
2022/05/21 08:10:58;;;;;;;3.40;2.05;;;;;;;30.34;22.87;101148.06;5091575;28;20484;-70
2022/05/21 08:13:25;;;;;;;4.80;2.00;;;;;;;30.10;22.95;101129.75;5090107;28;20504;-71
2022/05/21 08:15:52;;;;;;;4.50;1.60;;;;;;;29.80;23.51;101130.09;5088944;28;20435;-71
2022/05/21 08:18:20;;;;;;;3.10;1.70;;;;;;;29.92;23.25;101141.44;5089803;28;20511;-70
2022/05/21 08:20:48;;;;;;;3.23;1.97;;;;;;;30.04;23.07;101141.03;5090420;28;20411;-71
2022/05/21 08:28:45;;;;;;;3.53;2.30;;;;;;;30.88;23.05;101141.34;5088684;28;20401;-70
2022/05/21 08:31:12;;;;;;;6.45;2.30;;;;;;;31.07;22.39;101146.00;5090085;28;20432;-70
2022/05/21 08:33:41;;;;;;;7.73;2.43;;;;;;;31.19;22.40;101145.53;5090428;28;20929;-70
2022/05/21 08:36:08;;;;;;;5.43;2.50;;;;;;;31.61;22.78;101150.03;5090205;28;20508;-70
2022/05/21 08:38:35;;;;;;;3.80;1.65;;;;;;;31.80;21.13;101149.97;5090604;28;20431;-69
2022/05/21 08:41:07;;;;;;;6.40;2.60;;;;;;;31.77;21.60;101147.84;5090404;28;20860;-70
2022/05/21 08:43:49;;;;;;;5.72;2.58;;;;;;;32.13;21.33;101138.13;5090674;28;20481;-70
2022/05/21 08:46:23;;;;;;;2.40;1.73;;;;;;;32.40;19.17;101129.06;5090593;28;20419;-69
2022/05/21 08:48:57;;;;;;;3.72;2.47;;;;;;;32.44;20.59;101130.06;5088790;28;20419;-70
2022/05/21 08:51:29;;;;;;;4.30;2.20;;;;;;;32.63;19.96;101129.97;5089576;28;20964;-70
2022/05/21 08:53:57;;;;;;;4.80;2.28;;;;;;;32.54;20.02;101107.09;5089788;28;20413;-70
2022/05/21 08:56:25;;;;;;;3.38;1.60;;;;;;;32.71;20.13;101109.97;5089523;28;20409;-68
2022/05/21 08:58:56;;;;;;;3.03;1.73;;;;;;;32.95;18.30;101100.63;5089795;28;20834;-70
2022/05/21 09:01:26;;;;;;;3.10;1.80;;;;;;;33.00;18.98;101097.75;5089686;28;20492;-71
2022/05/21 09:03:56;;;;;;;3.90;1.40;;;;;;;33.07;18.17;101080.84;5090420;28;20458;-70
2022/05/21 09:06:35;;;;;;;4.65;1.90;;;;;;;33.10;17.22;101075.53;5089963;28;20405;-70
2022/05/21 09:09:11;;;;;;;4.47;2.10;;;;;;;32.92;18.27;101062.84;5090285;28;20413;-71
2022/05/21 09:11:41;;;;;;;4.45;1.50;;;;;;;33.23;17.42;101053.84;5090581;28;20496;-69
2022/05/21 09:14:14;;;;;;;3.90;2.30;;;;;;;33.35;17.88;101056.81;5089893;28;20415;-69
2022/05/21 09:16:54;;;;;;;6.95;2.00;;;;;;;33.33;17.18;101053.53;5089805;28;20410;-70
2022/05/21 09:19:25;;;;;;;3.15;1.92;;;;;;;33.36;17.84;101052.91;5089672;28;20433;-69
2022/05/21 09:21:59;;;;;;;4.03;1.85;;;;;;;33.45;17.18;101055.72;5090113;28;20417;-69
2022/05/21 09:24:41;;;;;;;3.60;2.00;;;;;;;33.48;18.55;101049.59;5089778;28;20973;-67
2022/05/21 09:27:27;;;;;;;3.20;1.85;;;;;;;33.53;16.88;101041.19;5089735;28;20843;-70
2022/05/21 09:30:11;;;;;;;2.35;1.77;;;;;;;33.61;17.38;101045.91;5090001;28;20500;-70
2022/05/21 09:32:39;;;;;;;2.90;2.08;;;;;;;33.56;17.18;101048.78;5089586;28;20799;-70
2022/05/21 09:35:12;;;;;;;2.80;1.95;;;;;;;33.46;18.13;101044.41;5089571;28;20418;-70
2022/05/21 09:37:39;;;;;;;3.67;1.80;;;;;;;33.45;17.33;101042.78;5089398;28;20898;-71
2022/05/21 09:40:24;;;;;;;3.92;1.60;;;;;;;33.51;17.70;101040.69;5089902;28;20406;-69
2022/05/21 09:45:37;;;;;;;5.82;1.80;;;;;;;33.66;17.04;101025.75;5089369;28;20466;-70
2022/05/21 09:48:19;;;;;;;6.47;1.60;;;;;;;33.66;17.37;101017.50;5089852;28;20596;-70
2022/05/21 09:50:51;;;;;;;3.40;1.75;;;;;;;33.48;17.59;101011.91;5089472;28;20783;-70
2022/05/21 09:53:30;;;;;;;4.68;1.88;;;;;;;33.65;17.31;101018.59;5089418;28;20891;-70
2022/05/21 09:56:03;;;;;;;4.25;2.13;;;;;;;33.80;17.17;101020.94;5089374;28;20409;-69
2022/05/21 09:58:34;;;;;;;11.85;2.13;;;;;;;33.76;17.89;101014.44;5089534;28;20507;-69
2022/05/21 10:01:01;;;;;;;3.35;1.95;;;;;;;33.85;17.76;101014.47;5089350;28;20945;-69
2022/05/21 10:03:45;;;;;;;5.45;1.90;;;;;;;33.51;18.11;101018.69;5089651;28;20488;-69
2022/05/21 10:06:30;;;;;;;4.28;1.80;;;;;;;33.49;17.70;101012.72;5089572;28;20463;-69
2022/05/21 10:11:55;;;;;;;4.28;2.03;;;;;;;33.50;18.04;101006.09;5093335;28;20424;-69
2022/05/21 10:14:26;;;;;;;2.78;1.67;;;;;;;33.76;18.08;101008.13;5093830;28;20448;-69
2022/05/21 10:16:56;;;;;;;4.37;1.60;;;;;;;33.84;18.11;101007.34;5093447;28;20484;-70
2022/05/21 10:19:32;;;;;;;2.63;2.00;;;;;;;33.92;18.54;101003.78;5093186;28;21041;-70
2022/05/21 10:22:12;;;;;;;2.80;1.45;;;;;;;33.72;18.14;100997.78;5093145;28;20500;-69
2022/05/21 10:24:54;;;;;;;2.72;1.50;;;;;;;33.67;18.32;100999.84;5093101;28;20560;-69
2022/05/21 10:27:48;;;;;;;3.33;1.70;;;;;;;33.85;18.35;101009.78;5093001;28;20427;-69
2022/05/21 10:30:18;;;;;;;3.00;1.60;;;;;;;33.56;18.59;101007.56;5076225;28;20452;-69
2022/05/21 10:33:02;;;;;;;2.20;1.48;;;;;;;33.67;18.42;101006.19;5093214;28;20405;-69
2022/05/21 10:35:46;;;;;;;3.83;1.60;;;;;;;33.57;19.30;100998.19;5093167;28;20452;-69
2022/05/21 10:38:28;;;;;;;3.17;1.85;;;;;;;33.68;18.83;100999.53;5092595;28;20429;-69
2022/05/21 10:41:01;;;;;;;2.63;1.60;;;;;;;33.61;18.72;100990.94;5092736;28;20407;-69
2022/05/21 10:43:59;;;;;;;3.40;1.55;;;;;;;33.53;18.86;100983.47;5092723;28;20409;-69
2022/05/21 10:46:37;;;;;;;3.70;1.80;;;;;;;33.50;18.93;100981.38;5084772;28;20427;-69
2022/05/21 10:49:32;;;;;;;2.83;1.60;;;;;;;33.75;18.66;100971.59;5092977;28;20495;-69
2022/05/21 10:52:03;;;;;;;3.25;1.63;;;;;;;33.46;19.20;100972.94;5070239;28;20492;-69
2022/05/21 10:54:48;;;;;;;3.20;1.60;;;;;;;33.50;19.18;100975.88;5092871;28;20423;-69
2022/05/21 10:57:31;;;;;;;3.77;1.67;;;;;;;33.54;18.60;100960.34;5092506;28;20500;-69
2022/05/21 11:00:06;;;;;;;2.70;1.70;;;;;;;33.61;19.14;100955.19;5092811;28;20428;-69
2022/05/21 11:03:05;;;;;;;3.72;1.52;;;;;;;33.69;18.62;100953.63;5092646;28;20466;-69
2022/05/21 11:06:07;;;;;;;3.10;1.67;;;;;;;33.47;19.11;100946.25;5092326;28;20409;-69
2022/05/21 11:08:43;;;;;;;3.00;1.50;;;;;;;33.51;18.94;100939.00;5092556;28;20440;-70
2022/05/21 11:11:21;;;;;;;3.40;1.40;;;;;;;33.43;19.17;100932.34;5092171;28;20993;-71
2022/05/21 11:13:57;;;;;;;3.10;1.60;;;;;;;33.37;19.33;100933.66;5092240;28;20496;-69
2022/05/21 11:16:30;;;;;;;1.98;1.58;;;;;;;33.37;19.60;100922.66;5092087;28;20505;-71
2022/05/21 11:19:01;;;;;;;2.78;1.63;;;;;;;33.39;19.48;100927.84;5091782;28;20436;-69
2022/05/21 11:21:32;;;;;;;2.80;1.58;;;;;;;33.26;19.67;100927.63;5092346;28;20447;-69
2022/05/21 11:24:05;;;;;;;2.30;1.50;;;;;;;33.20;19.66;100926.13;5091921;28;20513;-69
2022/05/21 11:26:38;;;;;;;3.00;1.50;;;;;;;33.25;20.00;100911.47;5092337;28;20409;-69
2022/05/21 11:29:11;;;;;;;2.35;1.65;;;;;;;33.45;19.91;100910.84;5092120;28;20489;-69
2022/05/21 11:37:22;;;;;;;2.17;1.60;;;;;;;33.75;20.17;100896.56;5091843;28;20443;-69
2022/05/21 11:39:51;;;;;;;3.72;1.95;;;;;;;33.75;19.73;100904.81;5091575;28;20429;-69
2022/05/21 11:42:24;;;;;;;2.00;1.60;;;;;;;33.82;19.83;100902.38;5091533;28;20843;-69
2022/05/21 11:44:56;;;;;;;2.92;1.50;;;;;;;33.73;19.68;100894.13;5091930;28;20492;-69
2022/05/21 11:47:44;;;;;;;2.47;1.57;;;;;;;33.64;19.85;100891.34;5091424;28;20504;-70
2022/05/21 11:50:20;;;;;;;2.08;1.88;;;;;;;33.65;20.40;100890.22;5091417;28;20500;-69
2022/05/21 11:53:04;;;;;;;3.42;1.63;;;;;;;33.70;20.40;100886.50;5091322;28;20415;-70
2022/05/21 11:55:52;;;;;;;3.47;1.65;;;;;;;33.69;20.22;100890.38;5091359;28;20500;-69
2022/05/21 11:58:26;;;;;;;4.60;1.90;;;;;;;33.61;20.37;100882.91;5091365;28;20409;-71
2022/05/21 12:00:53;;;;;;;2.45;1.60;;;;;;;33.66;20.43;100875.34;5091256;28;20405;-69
2022/05/21 12:03:22;;;;;;;2.15;1.60;;;;;;;33.66;20.29;100883.59;5091154;28;20413;-71
2022/05/21 12:06:12;;;;;;;3.25;1.45;;;;;;;33.52;20.35;100875.47;5091517;28;20484;-69
2022/05/21 12:08:46;;;;;;;2.33;1.48;;;;;;;33.44;20.51;100870.78;5091019;28;20414;-69
2022/05/21 12:11:40;;;;;;;3.35;1.45;;;;;;;33.36;20.36;100866.06;5091040;28;20413;-70
2022/05/21 12:14:21;;;;;;;2.35;1.33;;;;;;;33.38;20.92;100861.06;5091585;28;20413;-69
2022/05/21 12:16:51;;;;;;;2.60;1.60;;;;;;;33.48;20.55;100855.25;5091261;28;20397;-69
2022/05/21 12:20:07;;;;;;;1.92;1.50;;;;;;;33.55;21.22;100862.19;5091108;28;20429;-69